sensor_id;sensor_type;location;lat;lon;timestamp;P1;durP1;ratioP1;P2;durP2;ratioP2
78750;SDS011;68070;50.954;11.060;2024-03-08T10:37:25;18.30;;;12.00;;
78750;SDS011;68070;50.954;11.060;2024-03-08T10:39:57;17.60;;;12.20;;
78750;SDS011;68070;50.954;11.060;2024-03-08T10:42:35;17.10;;;10.40;;
78750;SDS011;68070;50.954;11.060;2024-03-08T10:45:15;18.80;;;11.50;;
78750;SDS011;68070;50.954;11.060;2024-03-08T10:47:49;16.90;;;11.60;;
78750;SDS011;68070;50.954;11.060;2024-03-08T10:50:19;18.00;;;10.70;;
78750;SDS011;68070;50.954;11.060;2024-03-08T10:53:49;18.90;;;11.50;;
78750;SDS011;68070;50.954;11.060;2024-03-08T10:56:17;18.50;;;11.40;;
78750;SDS011;68070;50.954;11.060;2024-03-08T10:58:43;14.00;;;10.20;;
78750;SDS011;68070;50.954;11.060;2024-03-08T11:01:10;15.80;;;11.10;;
78750;SDS011;68070;50.954;11.060;2024-03-08T11:06:09;17.10;;;11.80;;
78750;SDS011;68070;50.954;11.060;2024-03-08T11:08:40;14.70;;;10.60;;
78750;SDS011;68070;50.954;11.060;2024-03-08T11:11:22;15.50;;;10.80;;
78750;SDS011;68070;50.954;11.060;2024-03-08T11:13:53;17.20;;;10.50;;
78750;SDS011;68070;50.954;11.060;2024-03-08T11:16:36;16.60;;;11.40;;
78750;SDS011;68070;50.954;11.060;2024-03-08T11:19:06;15.80;;;11.60;;
78750;SDS011;68070;50.954;11.060;2024-03-08T11:21:59;15.20;;;11.10;;
78750;SDS011;68070;50.954;11.060;2024-03-08T11:24:26;16.30;;;11.40;;
78750;SDS011;68070;50.954;11.060;2024-03-08T11:26:58;17.20;;;11.40;;
78750;SDS011;68070;50.954;11.060;2024-03-08T11:31:53;14.90;;;11.20;;
78750;SDS011;68070;50.954;11.060;2024-03-08T11:34:43;16.40;;;12.20;;
78750;SDS011;68070;50.954;11.060;2024-03-08T11:37:13;15.20;;;12.20;;
78750;SDS011;68070;50.954;11.060;2024-03-08T11:39:41;18.20;;;12.60;;
78750;SDS011;68070;50.954;11.060;2024-03-08T11:42:24;15.50;;;11.30;;
78750;SDS011;68070;50.954;11.060;2024-03-08T11:44:53;16.70;;;12.10;;
78750;SDS011;68070;50.954;11.060;2024-03-08T11:47:20;17.20;;;12.40;;
78750;SDS011;68070;50.954;11.060;2024-03-08T11:49:46;15.00;;;11.60;;
78750;SDS011;68070;50.954;11.060;2024-03-08T11:52:15;15.00;;;11.10;;
78750;SDS011;68070;50.954;11.060;2024-03-08T11:54:51;15.60;;;11.30;;
78750;SDS011;68070;50.954;11.060;2024-03-08T11:57:22;17.50;;;12.50;;
78750;SDS011;68070;50.954;11.060;2024-03-08T11:59:52;16.40;;;12.00;;
78750;SDS011;68070;50.954;11.060;2024-03-08T12:02:19;14.70;;;11.00;;
78750;SDS011;68070;50.954;11.060;2024-03-08T12:04:45;16.50;;;11.30;;
78750;SDS011;68070;50.954;11.060;2024-03-08T12:07:14;16.00;;;12.80;;
78750;SDS011;68070;50.954;11.060;2024-03-08T12:09:57;17.10;;;13.00;;
78750;SDS011;68070;50.954;11.060;2024-03-08T12:12:53;16.10;;;11.90;;
78750;SDS011;68070;50.954;11.060;2024-03-08T12:15:22;16.20;;;11.30;;
78750;SDS011;68070;50.954;11.060;2024-03-08T12:18:55;14.40;;;11.90;;
78750;SDS011;68070;50.954;11.060;2024-03-08T12:21:21;13.50;;;11.10;;
78750;SDS011;68070;50.954;11.060;2024-03-08T12:24:06;15.90;;;12.10;;
78750;SDS011;68070;50.954;11.060;2024-03-08T12:26:37;15.50;;;12.80;;
78750;SDS011;68070;50.954;11.060;2024-03-08T12:29:20;15.20;;;12.90;;
78750;SDS011;68070;50.954;11.060;2024-03-08T12:31:57;15.90;;;11.80;;
78750;SDS011;68070;50.954;11.060;2024-03-08T12:34:26;17.40;;;13.80;;
78750;SDS011;68070;50.954;11.060;2024-03-08T12:36:54;15.90;;;12.90;;
78750;SDS011;68070;50.954;11.060;2024-03-08T12:39:21;16.80;;;12.50;;
78750;SDS011;68070;50.954;11.060;2024-03-08T12:41:50;13.50;;;11.70;;
78750;SDS011;68070;50.954;11.060;2024-03-08T12:44:20;13.40;;;12.00;;
78750;SDS011;68070;50.954;11.060;2024-03-08T12:46:50;16.20;;;12.50;;
78750;SDS011;68070;50.954;11.060;2024-03-08T12:49:17;15.50;;;12.60;;
78750;SDS011;68070;50.954;11.060;2024-03-08T12:51:43;16.10;;;13.00;;
78750;SDS011;68070;50.954;11.060;2024-03-08T12:54:10;14.60;;;11.90;;
78750;SDS011;68070;50.954;11.060;2024-03-08T12:56:36;15.70;;;13.70;;
78750;SDS011;68070;50.954;11.060;2024-03-08T12:59:03;14.10;;;11.60;;
78750;SDS011;68070;50.954;11.060;2024-03-08T13:01:30;15.10;;;13.30;;
78750;SDS011;68070;50.954;11.060;2024-03-08T13:03:57;16.10;;;13.20;;
78750;SDS011;68070;50.954;11.060;2024-03-08T13:06:24;14.30;;;12.40;;
78750;SDS011;68070;50.954;11.060;2024-03-08T13:08:50;13.90;;;12.40;;
78750;SDS011;68070;50.954;11.060;2024-03-08T13:11:17;14.60;;;12.20;;
78750;SDS011;68070;50.954;11.060;2024-03-08T13:13:45;14.70;;;13.00;;
78750;SDS011;68070;50.954;11.060;2024-03-08T13:16:12;15.60;;;12.00;;
78750;SDS011;68070;50.954;11.060;2024-03-08T13:18:42;16.30;;;13.30;;
78750;SDS011;68070;50.954;11.060;2024-03-08T13:21:09;14.60;;;13.00;;
78750;SDS011;68070;50.954;11.060;2024-03-08T13:23:36;15.70;;;12.60;;
78750;SDS011;68070;50.954;11.060;2024-03-08T13:26:10;14.80;;;13.00;;
78750;SDS011;68070;50.954;11.060;2024-03-08T13:28:46;15.00;;;12.90;;
78750;SDS011;68070;50.954;11.060;2024-03-08T13:31:22;14.70;;;12.80;;
78750;SDS011;68070;50.954;11.060;2024-03-08T13:33:48;15.00;;;13.20;;
78750;SDS011;68070;50.954;11.060;2024-03-08T13:36:15;15.60;;;13.40;;
78750;SDS011;68070;50.954;11.060;2024-03-08T13:38:45;16.70;;;14.40;;
78750;SDS011;68070;50.954;11.060;2024-03-08T13:41:13;20.10;;;14.30;;
78750;SDS011;68070;50.954;11.060;2024-03-08T13:43:42;17.10;;;13.20;;
78750;SDS011;68070;50.954;11.060;2024-03-08T13:46:11;15.40;;;13.30;;
78750;SDS011;68070;50.954;11.060;2024-03-08T13:48:37;15.90;;;14.10;;
78750;SDS011;68070;50.954;11.060;2024-03-08T13:51:06;15.30;;;13.00;;
78750;SDS011;68070;50.954;11.060;2024-03-08T13:53:35;13.80;;;12.30;;
78750;SDS011;68070;50.954;11.060;2024-03-08T13:56:02;18.20;;;13.80;;
78750;SDS011;68070;50.954;11.060;2024-03-08T13:58:28;16.40;;;14.70;;
78750;SDS011;68070;50.954;11.060;2024-03-08T14:00:54;16.80;;;14.20;;
78750;SDS011;68070;50.954;11.060;2024-03-08T14:03:21;15.50;;;13.30;;
78750;SDS011;68070;50.954;11.060;2024-03-08T14:05:47;17.80;;;14.20;;
78750;SDS011;68070;50.954;11.060;2024-03-08T14:08:13;15.00;;;13.40;;
78750;SDS011;68070;50.954;11.060;2024-03-08T14:10:39;15.30;;;13.30;;
78750;SDS011;68070;50.954;11.060;2024-03-08T14:13:07;16.20;;;13.10;;
78750;SDS011;68070;50.954;11.060;2024-03-08T14:15:34;14.40;;;11.70;;
78750;SDS011;68070;50.954;11.060;2024-03-08T14:18:01;15.90;;;13.30;;
78750;SDS011;68070;50.954;11.060;2024-03-08T14:20:27;15.40;;;13.10;;
78750;SDS011;68070;50.954;11.060;2024-03-08T14:22:55;16.70;;;12.60;;
78750;SDS011;68070;50.954;11.060;2024-03-08T14:25:22;14.80;;;11.20;;
78750;SDS011;68070;50.954;11.060;2024-03-08T14:27:51;14.30;;;12.40;;
78750;SDS011;68070;50.954;11.060;2024-03-08T14:30:19;15.00;;;12.30;;
78750;SDS011;68070;50.954;11.060;2024-03-08T14:33:00;14.30;;;12.00;;
78750;SDS011;68070;50.954;11.060;2024-03-08T14:35:37;15.40;;;12.10;;
78750;SDS011;68070;50.954;11.060;2024-03-08T14:38:04;13.90;;;11.20;;
78750;SDS011;68070;50.954;11.060;2024-03-08T14:40:33;15.60;;;12.70;;
78750;SDS011;68070;50.954;11.060;2024-03-08T14:42:59;14.70;;;13.10;;
78750;SDS011;68070;50.954;11.060;2024-03-08T14:45:26;13.60;;;10.50;;
78750;SDS011;68070;50.954;11.060;2024-03-08T14:47:52;15.20;;;10.80;;
78750;SDS011;68070;50.954;11.060;2024-03-08T14:50:18;15.70;;;12.50;;
78750;SDS011;68070;50.954;11.060;2024-03-08T14:52:45;21.80;;;11.60;;
78750;SDS011;68070;50.954;11.060;2024-03-08T14:55:14;15.70;;;12.10;;
78750;SDS011;68070;50.954;11.060;2024-03-08T14:57:40;14.10;;;12.30;;
78750;SDS011;68070;50.954;11.060;2024-03-08T15:00:07;16.90;;;13.70;;
78750;SDS011;68070;50.954;11.060;2024-03-08T15:02:42;15.60;;;13.40;;
78750;SDS011;68070;50.954;11.060;2024-03-08T15:05:08;14.60;;;12.00;;
78750;SDS011;68070;50.954;11.060;2024-03-08T15:07:37;16.20;;;12.90;;
78750;SDS011;68070;50.954;11.060;2024-03-08T15:10:06;16.70;;;12.10;;
78750;SDS011;68070;50.954;11.060;2024-03-08T15:12:36;17.40;;;14.70;;
78750;SDS011;68070;50.954;11.060;2024-03-08T15:15:06;14.10;;;12.00;;
78750;SDS011;68070;50.954;11.060;2024-03-08T15:17:34;14.10;;;12.00;;
78750;SDS011;68070;50.954;11.060;2024-03-08T15:20:03;16.00;;;12.70;;
78750;SDS011;68070;50.954;11.060;2024-03-08T15:22:29;16.70;;;12.10;;
78750;SDS011;68070;50.954;11.060;2024-03-08T15:24:55;15.10;;;10.80;;
78750;SDS011;68070;50.954;11.060;2024-03-08T15:27:23;14.00;;;10.30;;
78750;SDS011;68070;50.954;11.060;2024-03-08T15:29:50;15.10;;;12.50;;
78750;SDS011;68070;50.954;11.060;2024-03-08T15:32:17;15.10;;;12.30;;
78750;SDS011;68070;50.954;11.060;2024-03-08T15:34:46;14.70;;;11.90;;
78750;SDS011;68070;50.954;11.060;2024-03-08T15:37:12;16.30;;;12.20;;
78750;SDS011;68070;50.954;11.060;2024-03-08T15:39:43;13.10;;;10.40;;
78750;SDS011;68070;50.954;11.060;2024-03-08T15:42:09;17.30;;;12.20;;
78750;SDS011;68070;50.954;11.060;2024-03-08T15:44:39;15.10;;;11.90;;
78750;SDS011;68070;50.954;11.060;2024-03-08T15:47:07;14.30;;;11.90;;
78750;SDS011;68070;50.954;11.060;2024-03-08T15:49:36;14.10;;;10.80;;
78750;SDS011;68070;50.954;11.060;2024-03-08T15:52:01;15.80;;;12.00;;
78750;SDS011;68070;50.954;11.060;2024-03-08T15:54:27;14.70;;;11.40;;
78750;SDS011;68070;50.954;11.060;2024-03-08T15:56:53;14.00;;;11.20;;
78750;SDS011;68070;50.954;11.060;2024-03-08T15:59:19;17.10;;;12.00;;
78750;SDS011;68070;50.954;11.060;2024-03-08T16:01:46;14.90;;;10.90;;
78750;SDS011;68070;50.954;11.060;2024-03-08T16:04:16;16.30;;;11.30;;
78750;SDS011;68070;50.954;11.060;2024-03-08T16:06:42;14.70;;;11.20;;
78750;SDS011;68070;50.954;11.060;2024-03-08T16:09:09;17.30;;;11.90;;
78750;SDS011;68070;50.954;11.060;2024-03-08T16:14:06;16.40;;;11.80;;
78750;SDS011;68070;50.954;11.060;2024-03-08T16:16:39;16.30;;;12.10;;
78750;SDS011;68070;50.954;11.060;2024-03-08T16:19:04;19.30;;;12.80;;
78750;SDS011;68070;50.954;11.060;2024-03-08T16:21:33;15.10;;;12.50;;
78750;SDS011;68070;50.954;11.060;2024-03-08T16:23:59;16.10;;;12.30;;
78750;SDS011;68070;50.954;11.060;2024-03-08T16:26:25;18.50;;;11.70;;
78750;SDS011;68070;50.954;11.060;2024-03-08T16:28:53;16.00;;;12.20;;
78750;SDS011;68070;50.954;11.060;2024-03-08T16:31:21;21.40;;;12.90;;
78750;SDS011;68070;50.954;11.060;2024-03-08T16:33:46;18.80;;;12.90;;
78750;SDS011;68070;50.954;11.060;2024-03-08T16:36:12;19.20;;;11.90;;
78750;SDS011;68070;50.954;11.060;2024-03-08T16:38:39;19.10;;;12.80;;
78750;SDS011;68070;50.954;11.060;2024-03-08T16:41:06;19.20;;;13.10;;
78750;SDS011;68070;50.954;11.060;2024-03-08T16:43:32;19.40;;;13.70;;
78750;SDS011;68070;50.954;11.060;2024-03-08T16:45:58;20.00;;;13.80;;
78750;SDS011;68070;50.954;11.060;2024-03-08T16:48:26;20.10;;;13.00;;
78750;SDS011;68070;50.954;11.060;2024-03-08T16:50:52;17.80;;;12.30;;
78750;SDS011;68070;50.954;11.060;2024-03-08T16:53:19;16.10;;;11.80;;
78750;SDS011;68070;50.954;11.060;2024-03-08T16:55:45;15.90;;;11.80;;
78750;SDS011;68070;50.954;11.060;2024-03-08T17:00:43;16.70;;;11.80;;
78750;SDS011;68070;50.954;11.060;2024-03-08T17:03:09;18.60;;;11.90;;
78750;SDS011;68070;50.954;11.060;2024-03-08T17:05:37;21.30;;;12.90;;
78750;SDS011;68070;50.954;11.060;2024-03-08T17:08:04;19.30;;;12.10;;
78750;SDS011;68070;50.954;11.060;2024-03-08T17:10:30;19.20;;;12.00;;
78750;SDS011;68070;50.954;11.060;2024-03-08T17:12:59;18.40;;;11.10;;
78750;SDS011;68070;50.954;11.060;2024-03-08T17:15:26;17.00;;;11.10;;
78750;SDS011;68070;50.954;11.060;2024-03-08T17:17:54;16.30;;;10.30;;
78750;SDS011;68070;50.954;11.060;2024-03-08T17:20:26;15.50;;;10.30;;
78750;SDS011;68070;50.954;11.060;2024-03-08T17:22:54;13.90;;;9.80;;
78750;SDS011;68070;50.954;11.060;2024-03-08T17:25:21;15.60;;;9.30;;
78750;SDS011;68070;50.954;11.060;2024-03-08T17:27:50;15.70;;;10.20;;
78750;SDS011;68070;50.954;11.060;2024-03-08T17:30:19;15.90;;;11.10;;
78750;SDS011;68070;50.954;11.060;2024-03-08T17:32:50;18.10;;;11.70;;
78750;SDS011;68070;50.954;11.060;2024-03-08T17:35:29;15.80;;;10.20;;
78750;SDS011;68070;50.954;11.060;2024-03-08T17:37:59;17.50;;;12.30;;
78750;SDS011;68070;50.954;11.060;2024-03-08T17:40:34;17.70;;;11.30;;
78750;SDS011;68070;50.954;11.060;2024-03-08T17:43:03;23.80;;;15.20;;
78750;SDS011;68070;50.954;11.060;2024-03-08T17:45:35;15.80;;;10.90;;
78750;SDS011;68070;50.954;11.060;2024-03-08T17:48:02;18.20;;;12.40;;
78750;SDS011;68070;50.954;11.060;2024-03-08T17:50:41;17.20;;;12.20;;
78750;SDS011;68070;50.954;11.060;2024-03-08T17:53:07;18.50;;;11.30;;
78750;SDS011;68070;50.954;11.060;2024-03-08T17:55:35;19.60;;;12.80;;
78750;SDS011;68070;50.954;11.060;2024-03-08T17:58:03;20.60;;;14.00;;
78750;SDS011;68070;50.954;11.060;2024-03-08T18:00:31;17.90;;;13.20;;
78750;SDS011;68070;50.954;11.060;2024-03-08T18:03:01;17.30;;;12.10;;
78750;SDS011;68070;50.954;11.060;2024-03-08T18:05:30;19.00;;;13.20;;
78750;SDS011;68070;50.954;11.060;2024-03-08T18:07:58;18.00;;;12.50;;
78750;SDS011;68070;50.954;11.060;2024-03-08T18:10:26;18.50;;;12.70;;
78750;SDS011;68070;50.954;11.060;2024-03-08T18:12:57;17.40;;;11.80;;
78750;SDS011;68070;50.954;11.060;2024-03-08T18:15:24;18.60;;;12.70;;
78750;SDS011;68070;50.954;11.060;2024-03-08T18:17:58;21.90;;;14.10;;
78750;SDS011;68070;50.954;11.060;2024-03-08T18:20:26;21.90;;;13.30;;
78750;SDS011;68070;50.954;11.060;2024-03-08T18:23:07;20.80;;;13.30;;
78750;SDS011;68070;50.954;11.060;2024-03-08T18:25:34;17.40;;;12.90;;
78750;SDS011;68070;50.954;11.060;2024-03-08T18:28:01;21.50;;;14.70;;
78750;SDS011;68070;50.954;11.060;2024-03-08T18:30:31;20.60;;;14.30;;
78750;SDS011;68070;50.954;11.060;2024-03-08T18:32:58;19.60;;;12.70;;
78750;SDS011;68070;50.954;11.060;2024-03-08T18:35:23;22.30;;;14.00;;
78750;SDS011;68070;50.954;11.060;2024-03-08T18:37:50;19.70;;;12.70;;
78750;SDS011;68070;50.954;11.060;2024-03-08T18:40:16;20.90;;;13.50;;
78750;SDS011;68070;50.954;11.060;2024-03-08T18:45:13;23.10;;;13.80;;
78750;SDS011;68070;50.954;11.060;2024-03-08T18:47:45;19.50;;;12.70;;
78750;SDS011;68070;50.954;11.060;2024-03-08T18:50:14;23.00;;;14.30;;
78750;SDS011;68070;50.954;11.060;2024-03-08T18:52:43;19.40;;;13.00;;
78750;SDS011;68070;50.954;11.060;2024-03-08T18:55:10;24.50;;;14.00;;
78750;SDS011;68070;50.954;11.060;2024-03-08T18:57:41;19.30;;;12.70;;
78750;SDS011;68070;50.954;11.060;2024-03-08T19:00:12;21.60;;;13.90;;
78750;SDS011;68070;50.954;11.060;2024-03-08T19:02:49;22.60;;;15.70;;
78750;SDS011;68070;50.954;11.060;2024-03-08T19:05:18;26.10;;;17.00;;
78750;SDS011;68070;50.954;11.060;2024-03-08T19:07:46;27.90;;;17.50;;
78750;SDS011;68070;50.954;11.060;2024-03-08T19:10:15;28.20;;;17.70;;
78750;SDS011;68070;50.954;11.060;2024-03-08T19:12:47;27.40;;;17.80;;
78750;SDS011;68070;50.954;11.060;2024-03-08T19:15:15;27.60;;;17.80;;
78750;SDS011;68070;50.954;11.060;2024-03-08T19:17:42;27.60;;;17.10;;
78750;SDS011;68070;50.954;11.060;2024-03-08T19:20:09;22.80;;;14.60;;
78750;SDS011;68070;50.954;11.060;2024-03-08T19:22:42;22.40;;;14.80;;
78750;SDS011;68070;50.954;11.060;2024-03-08T19:25:09;21.50;;;14.50;;
78750;SDS011;68070;50.954;11.060;2024-03-08T19:27:37;26.80;;;15.80;;
78750;SDS011;68070;50.954;11.060;2024-03-08T19:30:08;26.80;;;16.20;;
78750;SDS011;68070;50.954;11.060;2024-03-08T19:32:35;20.60;;;13.80;;
78750;SDS011;68070;50.954;11.060;2024-03-08T19:35:01;22.60;;;14.10;;
78750;SDS011;68070;50.954;11.060;2024-03-08T19:37:35;19.40;;;12.30;;
78750;SDS011;68070;50.954;11.060;2024-03-08T19:40:05;23.40;;;14.50;;
78750;SDS011;68070;50.954;11.060;2024-03-08T19:42:48;23.30;;;15.20;;
78750;SDS011;68070;50.954;11.060;2024-03-08T19:45:16;22.10;;;12.80;;
78750;SDS011;68070;50.954;11.060;2024-03-08T19:47:42;22.30;;;13.80;;
78750;SDS011;68070;50.954;11.060;2024-03-08T19:50:15;26.30;;;15.50;;
78750;SDS011;68070;50.954;11.060;2024-03-08T19:52:47;22.30;;;15.60;;
78750;SDS011;68070;50.954;11.060;2024-03-08T19:55:16;25.50;;;16.00;;
78750;SDS011;68070;50.954;11.060;2024-03-08T19:57:45;24.10;;;15.10;;
78750;SDS011;68070;50.954;11.060;2024-03-08T20:00:16;25.00;;;16.10;;
78750;SDS011;68070;50.954;11.060;2024-03-08T20:02:48;24.80;;;15.70;;
78750;SDS011;68070;50.954;11.060;2024-03-08T20:05:15;24.60;;;16.30;;
78750;SDS011;68070;50.954;11.060;2024-03-08T20:07:43;25.90;;;16.50;;
78750;SDS011;68070;50.954;11.060;2024-03-08T20:10:15;26.40;;;15.20;;
78750;SDS011;68070;50.954;11.060;2024-03-08T20:12:42;22.30;;;14.10;;
78750;SDS011;68070;50.954;11.060;2024-03-08T20:15:09;26.60;;;17.50;;
78750;SDS011;68070;50.954;11.060;2024-03-08T20:17:37;28.00;;;18.00;;
78750;SDS011;68070;50.954;11.060;2024-03-08T20:20:04;27.70;;;17.70;;
78750;SDS011;68070;50.954;11.060;2024-03-08T20:22:31;25.40;;;15.70;;
78750;SDS011;68070;50.954;11.060;2024-03-08T20:24:57;24.00;;;14.80;;
78750;SDS011;68070;50.954;11.060;2024-03-08T20:27:24;26.90;;;15.40;;
78750;SDS011;68070;50.954;11.060;2024-03-08T20:29:55;16.60;;;10.70;;
78750;SDS011;68070;50.954;11.060;2024-03-08T20:32:21;17.60;;;10.40;;
78750;SDS011;68070;50.954;11.060;2024-03-08T20:34:46;22.50;;;12.40;;
78750;SDS011;68070;50.954;11.060;2024-03-08T20:37:12;18.70;;;11.40;;
78750;SDS011;68070;50.954;11.060;2024-03-08T20:39:39;20.40;;;12.10;;
78750;SDS011;68070;50.954;11.060;2024-03-08T20:42:06;19.80;;;12.70;;
78750;SDS011;68070;50.954;11.060;2024-03-08T20:44:31;17.10;;;10.40;;
78750;SDS011;68070;50.954;11.060;2024-03-08T20:46:57;18.60;;;11.40;;
78750;SDS011;68070;50.954;11.060;2024-03-08T20:49:24;17.50;;;11.60;;
78750;SDS011;68070;50.954;11.060;2024-03-08T20:51:49;14.90;;;10.00;;
78750;SDS011;68070;50.954;11.060;2024-03-08T20:54:15;19.70;;;11.20;;
78750;SDS011;68070;50.954;11.060;2024-03-08T20:56:42;19.20;;;10.50;;
78750;SDS011;68070;50.954;11.060;2024-03-08T20:59:08;18.10;;;10.30;;
78750;SDS011;68070;50.954;11.060;2024-03-08T21:01:35;17.90;;;10.40;;
78750;SDS011;68070;50.954;11.060;2024-03-08T21:04:02;19.10;;;11.10;;
78750;SDS011;68070;50.954;11.060;2024-03-08T21:06:29;15.60;;;10.00;;
78750;SDS011;68070;50.954;11.060;2024-03-08T21:08:56;15.60;;;10.00;;
78750;SDS011;68070;50.954;11.060;2024-03-08T21:11:22;18.50;;;12.20;;
78750;SDS011;68070;50.954;11.060;2024-03-08T21:13:52;16.10;;;10.80;;
78750;SDS011;68070;50.954;11.060;2024-03-08T21:16:18;17.10;;;9.90;;
78750;SDS011;68070;50.954;11.060;2024-03-08T21:18:44;14.20;;;10.00;;
78750;SDS011;68070;50.954;11.060;2024-03-08T21:21:09;18.70;;;10.70;;
78750;SDS011;68070;50.954;11.060;2024-03-08T21:23:37;14.50;;;10.00;;
78750;SDS011;68070;50.954;11.060;2024-03-08T21:26:02;17.80;;;9.90;;
78750;SDS011;68070;50.954;11.060;2024-03-08T21:28:33;16.70;;;10.60;;
78750;SDS011;68070;50.954;11.060;2024-03-08T21:30:59;16.70;;;10.80;;
78750;SDS011;68070;50.954;11.060;2024-03-08T21:33:26;15.80;;;10.10;;
78750;SDS011;68070;50.954;11.060;2024-03-08T21:35:52;14.10;;;9.00;;
78750;SDS011;68070;50.954;11.060;2024-03-08T21:38:18;15.00;;;7.90;;
78750;SDS011;68070;50.954;11.060;2024-03-08T21:40:45;14.30;;;9.20;;
78750;SDS011;68070;50.954;11.060;2024-03-08T21:43:11;18.40;;;10.90;;
78750;SDS011;68070;50.954;11.060;2024-03-08T21:45:37;14.00;;;8.30;;
78750;SDS011;68070;50.954;11.060;2024-03-08T21:48:03;13.00;;;8.50;;
78750;SDS011;68070;50.954;11.060;2024-03-08T21:50:31;17.40;;;9.90;;
78750;SDS011;68070;50.954;11.060;2024-03-08T21:52:58;20.40;;;10.50;;
78750;SDS011;68070;50.954;11.060;2024-03-08T21:55:27;14.30;;;8.50;;
78750;SDS011;68070;50.954;11.060;2024-03-08T21:57:55;12.70;;;7.60;;
78750;SDS011;68070;50.954;11.060;2024-03-08T22:00:24;13.70;;;8.30;;
78750;SDS011;68070;50.954;11.060;2024-03-08T22:02:50;13.80;;;8.10;;
78750;SDS011;68070;50.954;11.060;2024-03-08T22:05:17;10.00;;;6.50;;
78750;SDS011;68070;50.954;11.060;2024-03-08T22:07:46;11.00;;;7.80;;
78750;SDS011;68070;50.954;11.060;2024-03-08T22:10:15;12.50;;;7.60;;
78750;SDS011;68070;50.954;11.060;2024-03-08T22:12:48;13.60;;;7.60;;
78750;SDS011;68070;50.954;11.060;2024-03-08T22:15:15;14.20;;;8.80;;
78750;SDS011;68070;50.954;11.060;2024-03-08T22:17:42;15.00;;;9.20;;
78750;SDS011;68070;50.954;11.060;2024-03-08T22:20:10;15.20;;;9.20;;
78750;SDS011;68070;50.954;11.060;2024-03-08T22:22:52;15.70;;;9.30;;
78750;SDS011;68070;50.954;11.060;2024-03-08T22:25:19;15.50;;;9.50;;
78750;SDS011;68070;50.954;11.060;2024-03-08T22:27:47;15.20;;;9.60;;
78750;SDS011;68070;50.954;11.060;2024-03-08T22:30:17;18.30;;;9.70;;
78750;SDS011;68070;50.954;11.060;2024-03-08T22:32:45;18.10;;;9.40;;
78750;SDS011;68070;50.954;11.060;2024-03-08T22:35:12;15.60;;;9.80;;
78750;SDS011;68070;50.954;11.060;2024-03-08T22:37:41;37.00;;;20.20;;
78750;SDS011;68070;50.954;11.060;2024-03-08T22:40:10;533.10;;;281.50;;
78750;SDS011;68070;50.954;11.060;2024-03-08T22:40:41;473.30;;;256.60;;
78750;SDS011;68070;50.954;11.060;2024-03-08T22:41:12;204.40;;;101.40;;
78750;SDS011;68070;50.954;11.060;2024-03-08T22:41:44;160.80;;;77.70;;
78750;SDS011;68070;50.954;11.060;2024-03-08T22:42:14;28.80;;;17.80;;
78750;SDS011;68070;50.954;11.060;2024-03-08T22:42:46;27.40;;;18.10;;
78750;SDS011;68070;50.954;11.060;2024-03-08T22:43:16;27.20;;;16.40;;
78750;SDS011;68070;50.954;11.060;2024-03-08T22:43:47;24.50;;;15.40;;
78750;SDS011;68070;50.954;11.060;2024-03-08T22:44:17;22.70;;;15.00;;
78750;SDS011;68070;50.954;11.060;2024-03-08T22:44:48;24.60;;;16.10;;
78750;SDS011;68070;50.954;11.060;2024-03-08T22:45:20;18.40;;;14.20;;
78750;SDS011;68070;50.954;11.060;2024-03-08T22:45:51;19.30;;;13.70;;
78750;SDS011;68070;50.954;11.060;2024-03-08T22:46:54;16.80;;;11.70;;
78750;SDS011;68070;50.954;11.060;2024-03-08T22:47:26;19.60;;;13.30;;
78750;SDS011;68070;50.954;11.060;2024-03-08T22:47:57;16.20;;;12.30;;
78750;SDS011;68070;50.954;11.060;2024-03-08T22:48:27;15.70;;;11.40;;
78750;SDS011;68070;50.954;11.060;2024-03-08T22:48:57;18.30;;;13.00;;
78750;SDS011;68070;50.954;11.060;2024-03-08T22:49:28;15.40;;;12.40;;
78750;SDS011;68070;50.954;11.060;2024-03-08T22:49:59;18.40;;;12.50;;
78750;SDS011;68070;50.954;11.060;2024-03-08T22:50:30;17.90;;;12.70;;
78750;SDS011;68070;50.954;11.060;2024-03-08T22:51:00;17.90;;;12.30;;
78750;SDS011;68070;50.954;11.060;2024-03-08T22:51:33;17.20;;;11.50;;
78750;SDS011;68070;50.954;11.060;2024-03-08T22:52:03;17.10;;;12.10;;
78750;SDS011;68070;50.954;11.060;2024-03-08T22:52:34;18.40;;;12.40;;
78750;SDS011;68070;50.954;11.060;2024-03-08T22:53:09;16.60;;;11.30;;
78750;SDS011;68070;50.954;11.060;2024-03-08T22:53:43;17.50;;;12.00;;
78750;SDS011;68070;50.954;11.060;2024-03-08T22:54:14;17.60;;;12.00;;
78750;SDS011;68070;50.954;11.060;2024-03-08T22:54:46;16.10;;;11.90;;
78750;SDS011;68070;50.954;11.060;2024-03-08T22:55:17;17.80;;;11.60;;
78750;SDS011;68070;50.954;11.060;2024-03-08T22:55:52;14.50;;;11.10;;
78750;SDS011;68070;50.954;11.060;2024-03-08T22:56:23;17.50;;;13.30;;
78750;SDS011;68070;50.954;11.060;2024-03-08T22:56:53;16.90;;;13.00;;
78750;SDS011;68070;50.954;11.060;2024-03-08T22:57:27;19.10;;;13.40;;
78750;SDS011;68070;50.954;11.060;2024-03-08T22:57:57;17.70;;;11.00;;
78750;SDS011;68070;50.954;11.060;2024-03-08T22:58:27;17.60;;;12.10;;
78750;SDS011;68070;50.954;11.060;2024-03-08T22:58:59;15.30;;;12.50;;
78750;SDS011;68070;50.954;11.060;2024-03-08T22:59:30;15.20;;;11.40;;
78750;SDS011;68070;50.954;11.060;2024-03-08T23:00:00;17.40;;;12.30;;
78750;SDS011;68070;50.954;11.060;2024-03-08T23:00:31;17.20;;;12.50;;
78750;SDS011;68070;50.954;11.060;2024-03-08T23:01:22;18.00;;;12.00;;
78750;SDS011;68070;50.954;11.060;2024-03-08T23:01:53;17.60;;;12.40;;
78750;SDS011;68070;50.954;11.060;2024-03-08T23:02:23;15.30;;;11.90;;
78750;SDS011;68070;50.954;11.060;2024-03-08T23:02:54;16.80;;;12.30;;
78750;SDS011;68070;50.954;11.060;2024-03-08T23:03:25;20.50;;;13.70;;
78750;SDS011;68070;50.954;11.060;2024-03-08T23:03:56;22.20;;;14.30;;
78750;SDS011;68070;50.954;11.060;2024-03-08T23:04:26;20.50;;;13.50;;
78750;SDS011;68070;50.954;11.060;2024-03-08T23:04:57;19.80;;;13.90;;
78750;SDS011;68070;50.954;11.060;2024-03-08T23:05:28;20.90;;;13.20;;
78750;SDS011;68070;50.954;11.060;2024-03-08T23:05:59;23.70;;;15.20;;
78750;SDS011;68070;50.954;11.060;2024-03-08T23:06:30;21.80;;;15.10;;
78750;SDS011;68070;50.954;11.060;2024-03-08T23:07:00;27.80;;;16.20;;
78750;SDS011;68070;50.954;11.060;2024-03-08T23:07:31;36.60;;;19.80;;
78750;SDS011;68070;50.954;11.060;2024-03-08T23:08:01;28.70;;;15.90;;
78750;SDS011;68070;50.954;11.060;2024-03-08T23:08:34;25.30;;;14.80;;
78750;SDS011;68070;50.954;11.060;2024-03-08T23:09:04;26.40;;;16.50;;
78750;SDS011;68070;50.954;11.060;2024-03-08T23:09:42;31.30;;;17.80;;
78750;SDS011;68070;50.954;11.060;2024-03-08T23:10:13;28.60;;;17.20;;
78750;SDS011;68070;50.954;11.060;2024-03-08T23:10:45;20.00;;;14.10;;
78750;SDS011;68070;50.954;11.060;2024-03-08T23:11:17;21.60;;;13.60;;
78750;SDS011;68070;50.954;11.060;2024-03-08T23:11:48;19.40;;;12.70;;
78750;SDS011;68070;50.954;11.060;2024-03-08T23:12:19;25.90;;;16.30;;